Time;durP1;ratioP1;P1;durP2;ratioP2;P2;SDS_P1;SDS_P2;PMS_P1;PMS_P2;Temp;Humidity;BMP_temperature;BMP_pressure;BME280_temperature;BME280_humidity;BME280_pressure;Samples;Min_cycle;Max_cycle;Signal;HPM_P1;HPM_P2
2023/01/21 00:01:06;;;;;;;27.08;13.88;;;4.00;55.10;;;;;;5062078;28;20061;-43
2023/01/21 00:03:35;;;;;;;25.95;14.00;;;4.00;55.20;;;;;;5059636;28;20059;-47
2023/01/21 00:06:03;;;;;;;26.83;14.65;;;4.00;55.10;;;;;;5060751;28;20060;-45
2023/01/21 00:08:30;;;;;;;25.02;13.95;;;4.00;55.10;;;;;;5059480;28;20481;-44
2023/01/21 00:11:03;;;;;;;24.92;14.20;;;4.00;55.00;;;;;;5059920;28;20056;-48
2023/01/21 00:13:31;;;;;;;26.15;14.43;;;4.00;54.90;;;;;;5061966;28;20063;-48
2023/01/21 00:15:58;;;;;;;23.52;13.05;;;4.00;54.90;;;;;;5061391;28;20522;-44
2023/01/21 00:18:25;;;;;;;22.00;12.77;;;4.00;54.90;;;;;;5058813;28;20380;-45
2023/01/21 00:20:54;;;;;;;23.15;12.77;;;4.00;54.90;;;;;;5060443;28;20425;-46
2023/01/21 00:23:21;;;;;;;21.13;13.23;;;4.00;54.90;;;;;;5060663;28;20052;-43
2023/01/21 00:25:48;;;;;;;20.90;12.88;;;4.00;54.90;;;;;;5059676;28;20055;-44
2023/01/21 00:28:15;;;;;;;22.00;13.20;;;3.90;54.80;;;;;;5061404;28;20059;-45
2023/01/21 00:30:43;;;;;;;25.40;13.52;;;3.90;54.80;;;;;;5061315;28;20404;-45
2023/01/21 00:33:10;;;;;;;22.67;13.20;;;3.90;54.80;;;;;;5060069;28;20049;-42
2023/01/21 00:35:37;;;;;;;21.30;11.82;;;3.90;54.70;;;;;;5056894;28;20048;-45
2023/01/21 00:38:06;;;;;;;24.70;12.77;;;3.90;54.70;;;;;;5061865;28;20512;-46
2023/01/21 00:40:33;;;;;;;22.50;12.63;;;3.90;54.80;;;;;;5057862;28;20118;-44
2023/01/21 00:43:00;;;;;;;21.10;11.93;;;3.90;54.70;;;;;;5060383;28;20056;-45
2023/01/21 00:45:28;;;;;;;27.80;13.93;;;3.90;54.80;;;;;;5055839;28;20048;-44
2023/01/21 00:47:55;;;;;;;21.63;11.75;;;3.80;54.70;;;;;;5059817;28;20512;-43
2023/01/21 00:50:22;;;;;;;21.30;11.75;;;3.80;54.70;;;;;;5061666;28;20053;-45
2023/01/21 00:52:49;;;;;;;23.02;12.85;;;3.80;54.70;;;;;;5060547;28;20052;-48
2023/01/21 00:55:18;;;;;;;25.05;12.52;;;3.80;54.80;;;;;;5057704;28;20056;-45
2023/01/21 00:57:45;;;;;;;18.92;11.00;;;3.80;54.80;;;;;;5055503;28;20045;-47
2023/01/21 01:00:13;;;;;;;19.13;11.18;;;3.80;54.70;;;;;;5060125;28;20045;-48
2023/01/21 01:02:40;;;;;;;22.42;12.52;;;3.70;54.80;;;;;;5060151;28;20072;-46
2023/01/21 01:05:09;;;;;;;23.20;12.13;;;3.70;54.80;;;;;;5060018;28;20056;-44
2023/01/21 01:07:39;;;;;;;20.10;11.73;;;3.70;54.90;;;;;;5059608;28;20401;-45
2023/01/21 01:10:07;;;;;;;24.02;12.63;;;3.70;54.80;;;;;;5056544;28;20110;-47
2023/01/21 01:12:37;;;;;;;21.45;12.60;;;3.70;54.80;;;;;;5061164;28;20044;-45
2023/01/21 01:15:06;;;;;;;19.45;11.93;;;3.70;54.80;;;;;;5059875;28;20057;-47
2023/01/21 01:17:33;;;;;;;17.67;11.13;;;3.70;54.80;;;;;;5061649;28;20412;-45
2023/01/21 01:20:01;;;;;;;19.20;11.18;;;3.70;54.80;;;;;;5061499;28;20048;-44
2023/01/21 01:22:28;;;;;;;19.77;11.50;;;3.70;54.80;;;;;;5060707;28;20057;-46
2023/01/21 01:24:55;;;;;;;21.75;12.43;;;3.70;54.80;;;;;;5056865;28;20052;-47
2023/01/21 01:27:23;;;;;;;21.10;11.40;;;3.70;54.80;;;;;;5058527;28;20067;-44
2023/01/21 01:29:51;;;;;;;22.17;11.95;;;3.70;54.70;;;;;;5059925;28;20055;-43
2023/01/21 01:32:18;;;;;;;20.60;11.70;;;3.70;54.70;;;;;;5060430;28;20053;-44
2023/01/21 01:34:46;;;;;;;25.30;12.77;;;3.70;54.70;;;;;;5055851;28;20493;-44
2023/01/21 01:37:13;;;;;;;20.42;12.10;;;3.70;54.60;;;;;;5060486;28;20075;-44
2023/01/21 01:39:40;;;;;;;25.25;12.57;;;3.70;54.60;;;;;;5057038;28;20057;-46
2023/01/21 01:42:13;;;;;;;23.10;12.50;;;3.60;54.50;;;;;;5062299;28;20528;-46
2023/01/21 01:45:00;;;;;;;21.33;11.50;;;3.60;54.30;;;;;;5060027;28;20048;-44
2023/01/21 01:47:32;;;;;;;22.75;11.88;;;3.60;54.30;;;;;;5059941;28;20071;-47
2023/01/21 01:50:01;;;;;;;23.20;12.35;;;3.50;54.20;;;;;;5058398;28;20059;-45
2023/01/21 01:52:29;;;;;;;21.92;12.48;;;3.50;54.10;;;;;;5059285;28;20056;-45
2023/01/21 01:54:59;;;;;;;21.60;12.85;;;3.40;54.10;;;;;;5059351;28;20071;-45
2023/01/21 01:57:32;;;;;;;24.17;13.10;;;3.30;54.10;;;;;;5057716;28;20061;-45
2023/01/21 02:00:04;;;;;;;22.38;12.20;;;3.20;54.20;;;;;;5055037;28;20136;-45
2023/01/21 02:02:32;;;;;;;23.90;12.75;;;3.20;54.40;;;;;;5058738;28;20523;-45
2023/01/21 02:05:04;;;;;;;25.50;13.10;;;3.00;54.50;;;;;;5055711;28;20732;-44
2023/01/21 02:07:38;;;;;;;28.00;13.40;;;2.90;54.60;;;;;;5057819;28;20573;-43
2023/01/21 02:10:06;;;;;;;;;;;2.80;54.80;;;;;;5056473;28;20068;-44
2023/01/21 02:12:33;;;;;;;26.48;13.35;;;2.70;54.90;;;;;;5061827;28;19924;-44
2023/01/21 02:15:03;;;;;;;26.52;13.57;;;2.60;55.00;;;;;;5062905;28;20496;-46
2023/01/21 02:17:40;;;;;;;22.38;13.40;;;2.50;55.30;;;;;;5063877;28;20519;-43
2023/01/21 02:20:38;;;;;;;27.65;13.38;;;2.40;55.50;;;;;;5059775;28;20127;-44
2023/01/21 02:23:13;;;;;;;25.90;14.73;;;2.30;55.70;;;;;;5057168;28;20056;-46
2023/01/21 02:26:04;;;;;;;24.55;12.90;;;2.30;55.80;;;;;;5061093;28;20060;-42
2023/01/21 02:29:19;;;;;;;26.17;13.43;;;2.30;55.90;;;;;;5058982;28;20056;-42
2023/01/21 02:32:21;;;;;;;26.13;12.87;;;2.30;56.00;;;;;;5022084;28;20515;-43
2023/01/21 02:34:55;;;;;;;21.60;11.60;;;2.30;56.00;;;;;;5062863;28;20049;-47
2023/01/21 02:37:29;;;;;;;20.08;10.43;;;2.30;56.00;;;;;;5056395;28;20056;-44
2023/01/21 02:40:06;;;;;;;19.25;10.32;;;2.30;56.00;;;;;;5060091;28;20057;-44
2023/01/21 02:42:39;;;;;;;22.38;9.88;;;2.30;56.00;;;;;;5062506;28;20048;-43
2023/01/21 02:45:15;;;;;;;18.27;9.73;;;2.40;56.00;;;;;;5073905;28;20435;-44
2023/01/21 02:47:49;;;;;;;21.88;11.15;;;2.40;56.00;;;;;;5082242;28;20066;-43
2023/01/21 02:50:23;;;;;;;21.23;11.77;;;2.40;55.80;;;;;;5082110;28;20060;-44
2023/01/21 02:52:57;;;;;;;18.67;9.93;;;2.50;55.80;;;;;;5082798;28;20587;-42
2023/01/21 02:55:28;;;;;;;20.30;10.85;;;2.50;55.70;;;;;;5075245;28;20408;-43
2023/01/21 02:58:00;;;;;;;21.73;11.07;;;2.50;55.60;;;;;;5081002;28;20508;-42
2023/01/21 03:00:36;;;;;;;18.58;10.55;;;2.50;55.50;;;;;;5078150;28;20051;-42
2023/01/21 03:03:19;;;;;;;19.95;11.18;;;2.50;55.40;;;;;;5080635;28;20048;-43
2023/01/21 03:06:25;;;;;;;22.17;11.65;;;2.50;55.20;;;;;;5081716;28;20059;-45
2023/01/21 03:08:56;;;;;;;24.35;12.30;;;2.50;55.00;;;;;;5082045;28;20527;-41
2023/01/21 03:11:23;;;;;;;23.60;12.40;;;2.40;55.00;;;;;;5081671;28;20699;-43
2023/01/21 03:16:56;;;;;;;18.02;10.45;;;2.40;55.20;;;;;;5088129;28;20063;-42
2023/01/21 03:19:31;;;;;;;18.70;10.32;;;2.30;55.30;;;;;;5080211;28;20048;-45
2023/01/21 03:22:03;;;;;;;23.10;10.80;;;2.30;55.40;;;;;;5080896;28;20511;-43
2023/01/21 03:24:32;;;;;;;19.85;10.77;;;2.30;55.50;;;;;;5078360;28;20067;-47
2023/01/21 03:27:00;;;;;;;21.42;10.98;;;2.30;56.00;;;;;;5082315;28;20051;-44
2023/01/21 03:29:29;;;;;;;16.67;10.23;;;2.30;55.60;;;;;;5083793;28;20507;-43
2023/01/21 03:32:01;;;;;;;18.95;10.48;;;2.30;55.50;;;;;;5079858;28;20388;-44
2023/01/21 03:34:31;;;;;;;21.30;10.60;;;2.30;55.40;;;;;;5081688;28;20059;-42
2023/01/21 03:37:05;;;;;;;21.48;10.98;;;2.40;55.40;;;;;;5082488;28;20060;-44
2023/01/21 03:39:35;;;;;;;;;;;2.30;55.30;;;;;;5080288;28;20052;-44
2023/01/21 03:42:02;;;;;;;17.30;9.60;;;2.40;55.30;;;;;;5082168;28;19927;-43
2023/01/21 03:44:30;;;;;;;18.33;9.38;;;2.40;55.20;;;;;;5082445;28;20055;-41
2023/01/21 03:47:04;;;;;;;21.08;9.93;;;2.40;55.10;;;;;;5082144;28;20059;-50
2023/01/21 03:49:34;;;;;;;17.73;9.60;;;2.40;55.10;;;;;;5080484;28;20415;-43
2023/01/21 03:52:05;;;;;;;16.75;9.07;;;2.40;55.10;;;;;;5082103;28;20047;-48
2023/01/21 03:54:33;;;;;;;16.80;9.00;;;2.40;55.20;;;;;;5077120;28;20052;-43
2023/01/21 03:57:00;;;;;;;19.80;9.35;;;2.40;55.20;;;;;;5080752;28;20047;-46
2023/01/21 03:59:28;;;;;;;15.75;9.13;;;2.40;55.30;;;;;;5078370;28;20063;-45
2023/01/21 04:01:55;;;;;;;18.27;9.60;;;2.40;55.30;;;;;;5078492;28;20040;-48
2023/01/21 04:04:23;;;;;;;18.65;9.98;;;2.40;55.30;;;;;;5079865;28;20052;-46
2023/01/21 04:06:50;;;;;;;18.50;10.10;;;2.40;55.40;;;;;;5080338;28;20056;-46
2023/01/21 04:09:19;;;;;;;15.27;9.00;;;2.40;55.30;;;;;;5078321;28;20496;-43
2023/01/21 04:11:46;;;;;;;18.70;10.18;;;2.50;55.30;;;;;;5082149;28;20044;-45
2023/01/21 04:14:13;;;;;;;20.67;9.90;;;2.50;55.30;;;;;;5079542;28;20066;-46
2023/01/21 04:16:40;;;;;;;17.45;9.57;;;2.50;55.30;;;;;;5078535;28;20059;-46
2023/01/21 04:19:07;;;;;;;17.05;9.00;;;2.50;55.20;;;;;;5074432;28;20044;-46
2023/01/21 04:21:35;;;;;;;18.35;9.27;;;2.50;55.20;;;;;;5080088;28;20047;-47
2023/01/21 04:24:02;;;;;;;18.80;9.50;;;2.50;55.10;;;;;;5078130;28;20048;-46
2023/01/21 04:26:31;;;;;;;15.90;9.10;;;2.50;55.10;;;;;;5080318;28;20071;-45
2023/01/21 04:28:58;;;;;;;15.93;9.02;;;2.50;55.10;;;;;;5080656;28;20052;-44
2023/01/21 04:31:25;;;;;;;18.23;9.95;;;2.50;55.10;;;;;;5080398;28;20064;-44
2023/01/21 04:33:52;;;;;;;18.02;9.52;;;2.50;55.10;;;;;;5079528;28;20073;-48
2023/01/21 04:36:20;;;;;;;15.85;9.50;;;2.50;55.10;;;;;;5080099;28;20059;-43
2023/01/21 04:38:47;;;;;;;15.55;9.30;;;2.50;55.00;;;;;;5076614;28;20518;-45
2023/01/21 04:41:14;;;;;;;15.55;9.00;;;2.50;55.00;;;;;;5080012;28;20091;-44
2023/01/21 04:43:42;;;;;;;16.52;8.80;;;2.60;55.10;;;;;;5078260;28;20052;-45
2023/01/21 04:46:10;;;;;;;17.35;9.63;;;2.60;55.00;;;;;;5080861;28;20419;-45
2023/01/21 04:48:37;;;;;;;16.50;8.90;;;2.60;54.90;;;;;;5078296;28;20055;-43
2023/01/21 04:51:06;;;;;;;19.23;9.90;;;2.60;54.80;;;;;;5078614;28;20048;-44
2023/01/21 04:53:34;;;;;;;17.45;9.60;;;2.60;54.70;;;;;;5079111;28;20125;-44
2023/01/21 04:56:01;;;;;;;19.65;9.98;;;2.60;54.70;;;;;;5078758;28;20052;-44
2023/01/21 04:58:28;;;;;;;19.92;9.70;;;2.50;54.70;;;;;;5079966;28;20052;-44
2023/01/21 05:00:56;;;;;;;14.82;9.32;;;2.50;54.70;;;;;;5079934;28;20054;-45
2023/01/21 05:03:24;;;;;;;18.88;9.75;;;2.50;54.80;;;;;;5079025;28;20063;-44
2023/01/21 05:05:51;;;;;;;17.17;9.95;;;2.50;54.80;;;;;;5076960;28;20052;-44
2023/01/21 05:08:18;;;;;;;19.55;9.80;;;2.50;54.80;;;;;;5079553;28;20053;-44
2023/01/21 05:10:46;;;;;;;16.90;9.15;;;2.50;54.80;;;;;;5076636;28;20508;-44
2023/01/21 05:13:13;;;;;;;22.58;11.57;;;2.50;54.80;;;;;;5080093;28;20056;-44
2023/01/21 05:15:40;;;;;;;19.77;10.27;;;2.50;54.80;;;;;;5076007;28;20056;-46
2023/01/21 05:18:09;;;;;;;22.13;10.77;;;2.50;54.80;;;;;;5076494;28;20063;-44
2023/01/21 05:20:36;;;;;;;22.00;10.73;;;2.50;54.70;;;;;;5078038;28;20051;-43
2023/01/21 05:23:03;;;;;;;20.27;10.25;;;2.50;54.50;;;;;;5080224;28;20071;-43
2023/01/21 05:25:30;;;;;;;20.38;11.27;;;2.50;54.40;;;;;;5076619;28;20040;-46
2023/01/21 05:27:58;;;;;;;20.65;11.15;;;2.40;54.40;;;;;;5069604;28;20642;-45
2023/01/21 05:30:25;;;;;;;27.13;11.35;;;2.40;54.30;;;;;;5073680;28;20052;-44
2023/01/21 05:32:52;;;;;;;24.92;12.25;;;2.30;54.30;;;;;;5079364;28;20488;-44
2023/01/21 05:35:22;;;;;;;20.48;11.35;;;2.30;54.30;;;;;;5075111;28;20071;-45
2023/01/21 05:37:49;;;;;;;21.90;12.05;;;2.20;54.40;;;;;;5078415;28;20048;-47
2023/01/21 05:40:17;;;;;;;23.15;12.02;;;2.10;54.00;;;;;;5078428;28;20056;-47
2023/01/21 05:42:46;;;;;;;24.30;11.43;;;1.90;54.10;;;;;;5078506;28;20067;-44
2023/01/21 05:45:14;;;;;;;24.52;12.00;;;1.80;54.20;;;;;;5081101;28;20508;-43
2023/01/21 05:47:41;;;;;;;23.67;12.25;;;1.70;54.40;;;;;;5079619;28;20546;-44
2023/01/21 05:50:10;;;;;;;20.98;11.63;;;1.60;54.50;;;;;;5080240;28;20052;-45
2023/01/21 05:52:38;;;;;;;22.55;11.57;;;1.50;54.70;;;;;;5081549;28;20048;-43
2023/01/21 05:55:06;;;;;;;24.20;11.55;;;1.40;54.80;;;;;;5078457;28;20411;-44
2023/01/21 05:57:34;;;;;;;25.55;12.05;;;1.30;54.90;;;;;;5083252;28;20055;-45
2023/01/21 06:00:01;;;;;;;21.40;11.52;;;1.20;55.00;;;;;;5084024;28;20051;-44
2023/01/21 06:02:29;;;;;;;19.00;11.05;;;1.20;55.10;;;;;;5083223;28;20070;-45
2023/01/21 06:04:56;;;;;;;22.25;10.93;;;1.10;55.20;;;;;;5078914;28;20059;-46
2023/01/21 06:07:23;;;;;;;24.90;10.85;;;1.10;55.50;;;;;;5082891;28;20499;-46
2023/01/21 06:09:52;;;;;;;23.50;11.77;;;1.00;55.70;;;;;;5078429;28;20434;-45
2023/01/21 06:12:19;;;;;;;22.13;11.15;;;1.00;55.80;;;;;;5082319;28;20500;-44
2023/01/21 06:14:46;;;;;;;21.40;11.18;;;1.00;55.80;;;;;;5083209;28;20048;-45
2023/01/21 06:17:13;;;;;;;17.90;10.20;;;1.00;55.70;;;;;;5082420;28;20048;-45
2023/01/21 06:19:40;;;;;;;21.30;10.60;;;1.00;55.70;;;;;;5081210;28;20055;-48
2023/01/21 06:22:13;;;;;;;21.38;10.18;;;1.00;55.70;;;;;;5082895;28;20078;-42
2023/01/21 06:24:40;;;;;;;19.92;10.10;;;1.10;55.70;;;;;;5080526;28;20056;-42
2023/01/21 06:27:09;;;;;;;21.17;9.85;;;1.10;55.60;;;;;;5081254;28;20060;-44
2023/01/21 06:29:36;;;;;;;18.17;10.13;;;1.10;55.50;;;;;;5082284;28;20048;-43
2023/01/21 06:32:03;;;;;;;16.23;9.65;;;1.10;55.50;;;;;;5080472;28;20052;-44
2023/01/21 06:34:31;;;;;;;18.33;10.13;;;1.10;55.50;;;;;;5080631;28;20051;-46
2023/01/21 06:36:58;;;;;;;20.80;10.55;;;1.10;55.40;;;;;;5082539;28;20049;-46
2023/01/21 06:39:25;;;;;;;18.73;9.82;;;1.20;55.40;;;;;;5080084;28;20052;-42
2023/01/21 06:41:52;;;;;;;18.10;9.40;;;1.20;55.30;;;;;;5079002;28;20052;-43
2023/01/21 06:44:21;;;;;;;21.63;10.32;;;1.20;55.30;;;;;;5081220;28;20480;-43
2023/01/21 06:46:48;;;;;;;20.13;9.35;;;1.20;55.30;;;;;;5079032;28;20059;-42
2023/01/21 06:49:16;;;;;;;16.95;9.23;;;1.20;55.30;;;;;;5077200;28;21500;-46
2023/01/21 06:51:43;;;;;;;20.42;9.27;;;1.20;55.30;;;;;;5075534;28;20055;-46
2023/01/21 06:54:11;;;;;;;22.63;10.27;;;1.30;55.30;;;;;;5078886;28;20039;-44
2023/01/21 06:56:39;;;;;;;23.48;10.00;;;1.30;55.30;;;;;;5079835;28;20051;-47
2023/01/21 06:59:07;;;;;;;19.83;9.45;;;1.30;55.20;;;;;;5078586;28;20067;-43
2023/01/21 07:01:36;;;;;;;19.67;11.10;;;1.30;55.10;;;;;;5074100;28;20044;-46
2023/01/21 07:04:03;;;;;;;17.60;10.40;;;1.30;54.80;;;;;;5074199;28;20468;-42
2023/01/21 07:06:30;;;;;;;24.60;11.80;;;1.20;54.40;;;;;;5079648;28;20058;-46
2023/01/21 07:08:57;;;;;;;23.38;10.40;;;1.20;54.40;;;;;;5081996;28;20056;-44
2023/01/21 07:11:24;;;;;;;21.85;10.13;;;1.10;54.30;;;;;;5080348;28;20411;-46
2023/01/21 07:13:52;;;;;;;20.48;10.38;;;1.10;54.40;;;;;;5081631;28;20052;-48
2023/01/21 07:16:19;;;;;;;16.25;8.90;;;1.10;54.50;;;;;;5077849;28;20079;-45
2023/01/21 07:18:47;;;;;;;22.42;10.35;;;1.10;54.70;;;;;;5078412;28;20575;-44
2023/01/21 07:21:15;;;;;;;18.98;10.10;;;1.00;54.80;;;;;;5081008;28;20056;-46
2023/01/21 07:23:42;;;;;;;21.90;10.73;;;1.00;54.90;;;;;;5072522;28;20044;-44
2023/01/21 07:26:09;;;;;;;16.98;9.23;;;1.00;54.90;;;;;;5073597;28;20048;-49
2023/01/21 07:28:37;;;;;;;19.60;9.70;;;1.00;55.00;;;;;;5076503;28;20411;-46
2023/01/21 07:31:04;;;;;;;15.70;8.75;;;1.10;55.00;;;;;;5078053;28;20451;-46
2023/01/21 07:33:32;;;;;;;16.55;9.25;;;1.00;55.00;;;;;;5076943;28;20043;-44
2023/01/21 07:36:00;;;;;;;17.88;8.77;;;1.10;55.00;;;;;;5079378;28;20396;-46
2023/01/21 07:38:27;;;;;;;18.88;8.63;;;1.10;54.90;;;;;;5079071;28;20056;-43
2023/01/21 07:40:55;;;;;;;15.50;8.52;;;1.10;54.90;;;;;;5076485;28;20059;-45
2023/01/21 07:43:22;;;;;;;16.00;8.82;;;1.10;54.90;;;;;;5079681;28;20415;-47
2023/01/21 07:59:23;;;;;;;21.42;9.00;;;1.20;54.70;;;;;;5075130;28;20069;-42
2023/01/21 08:01:50;;;;;;;15.30;8.82;;;1.10;54.10;;;;;;5078191;28;20540;-43
2023/01/21 08:04:17;;;;;;;16.70;8.18;;;1.00;53.80;;;;;;5073526;28;20450;-46
2023/01/21 08:06:44;;;;;;;17.88;8.95;;;1.00;53.70;;;;;;5073550;28;20051;-43
2023/01/21 08:09:12;;;;;;;20.65;10.45;;;0.90;53.80;;;;;;5077727;28;20420;-43
2023/01/21 08:11:39;;;;;;;22.83;10.57;;;0.90;53.90;;;;;;5072811;28;20044;-45
2023/01/21 08:14:06;;;;;;;22.83;11.43;;;0.80;54.00;;;;;;5072376;28;20063;-43
2023/01/21 08:16:35;;;;;;;25.00;11.35;;;0.80;54.20;;;;;;5075611;28;20063;-44
2023/01/21 08:19:02;;;;;;;25.40;12.23;;;0.80;54.30;;;;;;5071860;28;20502;-46
2023/01/21 08:21:29;;;;;;;25.70;13.18;;;0.80;54.40;;;;;;5076407;28;20502;-42
2023/01/21 08:23:56;;;;;;;33.83;15.68;;;0.80;54.50;;;;;;5075348;28;20052;-45
2023/01/21 08:26:24;;;;;;;112.72;46.53;;;0.80;54.50;;;;;;5080544;28;20510;-44
2023/01/21 08:28:54;;;;;;;114.38;51.25;;;0.80;54.60;;;;;;5077584;28;20067;-44
2023/01/21 08:31:21;;;;;;;168.10;78.72;;;0.80;54.70;;;;;;5074675;28;20630;-43
2023/01/21 08:33:49;;;;;;;146.80;65.93;;;0.80;54.80;;;;;;5076427;28;20409;-43
2023/01/21 08:36:17;;;;;;;106.43;42.72;;;0.80;54.90;;;;;;5080403;28;20487;-43
2023/01/21 08:38:44;;;;;;;47.72;23.45;;;0.80;54.90;;;;;;5077325;28;20508;-44
2023/01/21 08:41:11;;;;;;;37.00;17.75;;;0.90;55.00;;;;;;5077440;28;20048;-48
2023/01/21 08:43:40;;;;;;;35.58;16.20;;;0.90;55.00;;;;;;5077926;28;20055;-44
2023/01/21 08:46:07;;;;;;;49.72;17.30;;;0.90;55.10;;;;;;5075194;28;20051;-44
2023/01/21 08:48:34;;;;;;;26.40;13.30;;;0.90;55.10;;;;;;5075816;28;20054;-43
2023/01/21 08:51:04;;;;;;;25.60;12.27;;;1.00;55.20;;;;;;5079748;28;20059;-45
2023/01/21 08:53:31;;;;;;;24.35;12.55;;;1.00;55.00;;;;;;5078036;28;20052;-45
2023/01/21 08:56:00;;;;;;;23.90;12.88;;;0.90;54.60;;;;;;5079807;28;20056;-46
2023/01/21 08:58:27;;;;;;;29.35;12.95;;;0.90;54.30;;;;;;5076732;28;20104;-45
2023/01/21 09:00:55;;;;;;;21.73;11.13;;;0.80;53.90;;;;;;5078688;28;20056;-43
2023/01/21 09:03:22;;;;;;;23.70;12.75;;;0.70;53.80;;;;;;5077386;28;20048;-47
2023/01/21 09:05:50;;;;;;;21.95;12.38;;;0.60;53.90;;;;;;5079334;28;20051;-46
2023/01/21 09:08:22;;;;;;;25.63;12.40;;;0.50;54.00;;;;;;5076187;28;20063;-43
2023/01/21 09:11:02;;;;;;;25.33;12.20;;;0.40;54.20;;;;;;5076013;28;20878;-45
2023/01/21 09:13:31;;;;;;;22.50;11.68;;;0.30;54.40;;;;;;5079140;28;21516;-44
2023/01/21 09:22:43;;;;;;;28.05;13.00;;;0.20;55.40;;;;;;5080573;28;20039;-44
2023/01/21 09:25:11;;;;;;;26.02;12.00;;;0.20;55.60;;;;;;5077943;28;20048;-43
2023/01/21 09:27:38;;;;;;;26.20;13.07;;;0.10;55.80;;;;;;5080952;28;20048;-44
2023/01/21 09:30:07;;;;;;;23.10;11.90;;;0.20;56.00;;;;;;5079784;28;20051;-46
2023/01/21 09:32:34;;;;;;;24.27;11.52;;;0.20;56.20;;;;;;5080352;28;20048;-43
2023/01/21 09:35:01;;;;;;;29.20;13.20;;;0.20;56.30;;;;;;5077730;28;20048;-44
2023/01/21 09:37:29;;;;;;;26.08;13.02;;;0.20;56.40;;;;;;5080265;28;20055;-47
2023/01/21 09:39:56;;;;;;;23.75;12.13;;;0.20;56.60;;;;;;5077119;28;20526;-43
2023/01/21 09:42:29;;;;;;;26.60;13.38;;;0.20;56.60;;;;;;5079487;28;20059;-44
2023/01/21 09:44:59;;;;;;;28.97;13.00;;;0.30;56.80;;;;;;5079817;28;20495;-43
2023/01/21 09:47:31;;;;;;;30.40;14.82;;;0.30;56.90;;;;;;5075713;28;20055;-46
2023/01/21 09:50:03;;;;;;;31.13;14.77;;;0.30;57.10;;;;;;5079110;28;20051;-44
2023/01/21 09:52:38;;;;;;;31.85;14.80;;;0.30;57.30;;;;;;5076634;28;20048;-45
2023/01/21 09:55:12;;;;;;;33.00;15.80;;;0.40;57.50;;;;;;5073609;28;20055;-43
2023/01/21 09:58:00;;;;;;;32.40;14.23;;;0.40;57.40;;;;;;5078062;28;20424;-43
2023/01/21 10:00:33;;;;;;;31.83;15.55;;;0.50;57.50;;;;;;5079348;28;20052;-43
2023/01/21 10:03:11;;;;;;;30.63;14.88;;;0.50;57.50;;;;;;5076997;28;20056;-43
2023/01/21 10:06:00;;;;;;;30.02;14.60;;;0.60;57.60;;;;;;5075595;28;20418;-42
2023/01/21 10:08:39;;;;;;;31.05;15.43;;;0.60;57.60;;;;;;5078977;28;20059;-47
2023/01/21 10:11:21;;;;;;;30.10;15.63;;;0.70;57.60;;;;;;5076876;28;20055;-44
2023/01/21 10:14:03;;;;;;;33.60;14.82;;;0.80;57.70;;;;;;5078891;28;20067;-44
2023/01/21 10:16:38;;;;;;;29.38;13.98;;;0.80;57.60;;;;;;5080651;28;20047;-47
2023/01/21 10:19:11;;;;;;;34.50;16.77;;;0.80;57.70;;;;;;5081907;28;20071;-43
2023/01/21 10:21:46;;;;;;;31.38;15.70;;;0.90;57.90;;;;;;5078294;28;20048;-46
2023/01/21 10:24:19;;;;;;;32.42;16.42;;;0.90;57.90;;;;;;5078449;28;20055;-44
2023/01/21 10:26:49;;;;;;;33.85;15.43;;;1.00;58.00;;;;;;5077144;28;20048;-43
2023/01/21 10:29:20;;;;;;;33.15;16.35;;;1.10;58.00;;;;;;5078055;28;20499;-43
2023/01/21 10:31:53;;;;;;;31.17;15.82;;;1.20;58.10;;;;;;5075574;28;20057;-43
2023/01/21 10:34:21;;;;;;;32.60;16.23;;;1.20;58.10;;;;;;5084169;28;20427;-45
2023/01/21 10:37:00;;;;;;;34.83;16.70;;;1.30;58.60;;;;;;5081905;28;20067;-42
2023/01/21 10:39:37;;;;;;;27.48;14.55;;;1.30;58.10;;;;;;5079211;28;20559;-45
2023/01/21 10:42:17;;;;;;;33.53;15.90;;;1.40;58.10;;;;;;5084116;28;20048;-43
2023/01/21 10:44:53;;;;;;;27.83;14.40;;;1.50;58.00;;;;;;5084448;28;20059;-45
2023/01/21 10:47:29;;;;;;;30.13;14.32;;;1.50;57.90;;;;;;5082218;28;20063;-44
2023/01/21 10:50:03;;;;;;;29.80;15.02;;;1.60;57.80;;;;;;5082902;28;20059;-46
2023/01/21 10:52:38;;;;;;;32.95;14.10;;;1.70;57.80;;;;;;5080150;28;20056;-46
2023/01/21 10:55:19;;;;;;;32.47;15.45;;;1.80;57.60;;;;;;5084131;28;20062;-43
2023/01/21 10:57:56;;;;;;;32.20;15.50;;;1.80;57.40;;;;;;5084799;28;20058;-42
2023/01/21 11:00:28;;;;;;;33.33;16.58;;;1.90;57.50;;;;;;5085168;28;20910;-47
2023/01/21 11:02:59;;;;;;;33.03;16.02;;;1.90;57.60;;;;;;5084409;28;20052;-44
2023/01/21 11:05:27;;;;;;;31.77;16.75;;;2.00;57.40;;;;;;5084217;28;20055;-43
2023/01/21 11:07:56;;;;;;;32.25;16.00;;;2.00;57.30;;;;;;5084529;28;20051;-44
2023/01/21 11:10:26;;;;;;;31.95;14.95;;;2.10;57.20;;;;;;5082089;28;20071;-43
2023/01/21 11:12:54;;;;;;;29.73;15.18;;;2.10;57.10;;;;;;5082858;28;20040;-43
2023/01/21 11:15:24;;;;;;;30.33;15.57;;;2.20;57.20;;;;;;5081704;28;20061;-43
2023/01/21 11:17:55;;;;;;;34.60;16.10;;;2.20;57.10;;;;;;5083951;28;20527;-46
2023/01/21 11:20:28;;;;;;;35.72;16.13;;;2.20;57.10;;;;;;5083138;28;20471;-45
2023/01/21 11:22:55;;;;;;;37.30;18.17;;;2.30;57.00;;;;;;5084438;28;20054;-43
2023/01/21 11:25:30;;;;;;;35.20;18.00;;;2.30;56.90;;;;;;5083097;28;20071;-43
2023/01/21 11:27:58;;;;;;;40.72;18.15;;;2.40;56.90;;;;;;5083092;28;20067;-42
2023/01/21 11:30:36;;;;;;;35.90;17.45;;;2.40;56.90;;;;;;5084460;28;20067;-46
2023/01/21 11:33:25;;;;;;;31.73;15.75;;;2.40;56.80;;;;;;5084274;28;20055;-44
2023/01/21 11:35:53;;;;;;;36.42;16.48;;;2.50;57.40;;;;;;5084103;28;20055;-42
2023/01/21 11:38:25;;;;;;;39.35;18.00;;;2.50;56.90;;;;;;5080538;28;20054;-45
2023/01/21 11:41:13;;;;;;;35.83;16.98;;;2.50;56.80;;;;;;5080144;28;20382;-47
2023/01/21 11:43:43;;;;;;;32.38;17.25;;;2.60;56.90;;;;;;5081197;28;20142;-44
2023/01/21 11:46:30;;;;;;;31.50;16.33;;;2.60;57.40;;;;;;5084215;28;20044;-43
2023/01/21 11:49:31;;;;;;;34.47;17.67;;;2.60;56.90;;;;;;5084337;28;20510;-46
2023/01/21 11:52:16;;;;;;;31.55;16.52;;;2.60;56.70;;;;;;5084143;28;20056;-42
2023/01/21 11:54:44;;;;;;;32.17;16.60;;;2.70;56.60;;;;;;5083024;28;20052;-45
2023/01/21 11:57:24;;;;;;;30.23;16.52;;;2.70;56.60;;;;;;5078209;28;20086;-45
2023/01/21 11:59:53;;;;;;;33.35;16.63;;;2.70;56.60;;;;;;5083503;28;20522;-44
2023/01/21 12:02:25;;;;;;;29.10;16.05;;;2.70;56.60;;;;;;5082364;28;20048;-45
2023/01/21 12:04:57;;;;;;;31.67;16.35;;;2.70;56.60;;;;;;5083181;28;20059;-43
2023/01/21 12:07:27;;;;;;;30.10;15.77;;;2.70;56.60;;;;;;5080619;28;20067;-45
2023/01/21 12:10:07;;;;;;;28.70;15.93;;;2.80;56.60;;;;;;5082855;28;20064;-45
2023/01/21 12:12:52;;;;;;;31.55;15.63;;;2.80;56.70;;;;;;5081360;28;20074;-45
2023/01/21 12:15:32;;;;;;;36.00;16.65;;;2.80;56.80;;;;;;5082455;28;20048;-47
2023/01/21 12:18:11;;;;;;;33.70;16.55;;;2.90;56.70;;;;;;5083312;28;20052;-44
2023/01/21 12:20:48;;;;;;;31.75;14.95;;;2.90;56.60;;;;;;5081208;28;20480;-43
2023/01/21 12:23:42;;;;;;;31.67;16.27;;;2.90;56.60;;;;;;5082708;28;20063;-46
2023/01/21 12:26:27;;;;;;;33.60;16.27;;;3.00;56.60;;;;;;5082697;28;20048;-45
2023/01/21 12:29:05;;;;;;;34.95;17.63;;;3.00;56.60;;;;;;5082323;28;20404;-44
2023/01/21 12:31:41;;;;;;;27.83;15.30;;;3.00;56.60;;;;;;5082790;28;20052;-44
2023/01/21 12:34:19;;;;;;;30.88;16.02;;;3.10;56.60;;;;;;5080957;28;20044;-46
2023/01/21 12:36:51;;;;;;;34.55;17.00;;;3.10;56.50;;;;;;5082833;28;20055;-44
2023/01/21 12:39:24;;;;;;;34.97;17.38;;;3.10;56.50;;;;;;5081583;28;20048;-45
2023/01/21 12:42:01;;;;;;;34.92;16.23;;;3.10;56.50;;;;;;5081580;28;20051;-41
2023/01/21 12:44:34;;;;;;;30.13;15.75;;;3.20;56.60;;;;;;5082500;28;20063;-44
2023/01/21 12:47:08;;;;;;;30.48;14.80;;;3.20;56.50;;;;;;5082784;28;20059;-45
2023/01/21 12:50:02;;;;;;;31.35;15.98;;;3.20;56.60;;;;;;5081334;28;20059;-42
2023/01/21 12:52:37;;;;;;;35.13;16.20;;;3.20;56.60;;;;;;5082092;28;20066;-48
2023/01/21 12:55:12;;;;;;;31.77;17.70;;;3.30;56.60;;;;;;5081749;28;20403;-44
2023/01/21 12:57:44;;;;;;;29.40;15.55;;;3.40;56.60;;;;;;5080863;28;20052;-45
2023/01/21 13:00:18;;;;;;;33.92;15.73;;;3.40;56.40;;;;;;5082830;28;20407;-44
2023/01/21 13:02:55;;;;;;;31.58;16.50;;;3.40;56.30;;;;;;5082145;28;20078;-44
2023/01/21 13:05:30;;;;;;;32.10;16.73;;;3.50;56.20;;;;;;5081874;28;20498;-44
2023/01/21 13:08:13;;;;;;;30.55;15.73;;;3.50;56.20;;;;;;5081784;28;20499;-42
2023/01/21 13:10:47;;;;;;;30.83;16.35;;;3.50;56.30;;;;;;5078935;28;20056;-43
2023/01/21 13:13:19;;;;;;;28.77;15.10;;;3.50;56.20;;;;;;5083140;28;20052;-44
2023/01/21 13:15:50;;;;;;;28.40;14.75;;;3.50;56.20;;;;;;5081221;28;20044;-43
2023/01/21 13:18:23;;;;;;;28.65;14.80;;;3.50;56.20;;;;;;5078787;28;20059;-44
2023/01/21 13:20:55;;;;;;;28.52;15.30;;;3.50;56.00;;;;;;5080541;28;20067;-43